Airfield :
LOGIN :

Register | Disclaimer

   EN    FR    IT 

 










Legend :    VFR   Marginal VFR   IFR   Intensive IFR   Very Intensive IFR
Visi :
Ceiling :
>= 8 km
>= 3000ft
5 to 8 km
1000 to 3000 ft
1500m to 5 km
500 to 1000 ft
800 to 1500m
200 to 500 ft
< 800m
< 200 ft
Symbols :   Thunderstorms  Fog  Heavy snow  Heavy precipitations  Wind > 20 kt
SIGMETs :     Misc.  Thunderstorms  Icing  Turbulence  Mountain Waves  Volcanic Ashes






- Airport Elevation : 1260 ft
- IATA code : LDE


LFBT - Tarbes / Ossun

CURRENT METAR :
  • 200730Z AUTO 20007KT 9999 BKN022/// OVC052/// ///TCU 05/04 Q1030 TEMPO 3000 -DZRA BKN005 OVC020

EXPIRED METARs :
  • 200700Z AUTO 18004KT 9999 -DZ OVC020 05/04 Q1030 TEMPO 3000 -DZRA BKN005 OVC020
  • 200630Z AUTO 19006KT 9999 OVC022 05/04 Q1030 TEMPO 3000 -DZRA BKN005 OVC020
  • 200600Z AUTO 19005KT 9999 -RA BKN023 OVC028 05/04 Q1030 TEMPO 3000 -DZRA BKN005 OVC020
  • 200530Z AUTO 21004KT 9000 -RA BKN029/// BKN035/// OVC049/// ///TCU 05/04 Q1030 TEMPO 3000 -DZRA BKN005 OVC020
  • 200500Z AUTO 20005KT 9999 RA BKN029/// OVC034/// ///TCU 05/04 Q1030 TEMPO 3000 -DZRA BKN005 OVC020

TAF TAF LFBT
Valid from the 20 at 06:00 until the 21 at 06:00 UTC


200500Z 2006/2106 24008KT 9999 OVC040
PROB30
TEMPO 2006/2011 3000 -DZRA BKN005 OVC020
BECMG 2012/2014 06006KT
BECMG 2022/2023 3000 -RADZ OVC003



MET'MAP, your aeronautical weather chart ! - Copyright ORBIFLY December 2007 - Disclaimer

ORBIFLY MET'MAP TEAM :

Programming & Development : Alexandra Zaïnal
Concept & original design : Baudouin d'Aumeries
Assistance for programming : Marc-Olivier Méhu
Technical & hardware support : Manuel Goepfert

Contact : metmap@orbifly.com




SOURCES & CREDITS :

   NOAA